Time;durP1;ratioP1;P1;durP2;ratioP2;P2;SDS_P1;SDS_P2;PMS_P1;PMS_P2;Temp;Humidity;BMP_temperature;BMP_pressure;BME280_temperature;BME280_humidity;BME280_pressure;Samples;Min_cycle;Max_cycle;Signal;HPM_P1;HPM_P2
2024/01/11 00:02:15;;;;;;;;;24.25;21.75;;;;;6.58;76.23;102107.66;146710;564;45035;-74
2024/01/11 00:05:07;;;;;;;;;25.00;22.25;;;;;6.63;74.62;102120.16;146617;595;46016;-72
2024/01/11 00:07:59;;;;;;;;;27.00;21.00;;;;;6.66;74.41;102130.75;146621;598;46010;-76
2024/01/11 00:10:59;;;;;;;;;23.25;21.50;;;;;6.64;74.50;102126.25;146616;589;46017;-76
2024/01/11 00:13:57;;;;;;;;;30.50;27.75;;;;;6.63;73.46;102120.16;146620;591;47010;-76
2024/01/11 00:16:52;;;;;;;;;30.25;26.75;;;;;6.63;73.26;102119.28;146618;565;46016;-71
2024/01/11 00:19:45;;;;;;;;;27.25;26.50;;;;;6.66;73.79;102124.69;146623;571;46010;-72
2024/01/11 00:22:52;;;;;;;;;26.00;22.50;;;;;6.70;74.36;102119.06;146620;626;46016;-72
2024/01/11 00:26:06;;;;;;;;;32.75;27.50;;;;;6.75;73.68;102109.16;146623;564;46020;-73
2024/01/11 00:29:01;;;;;;;;;28.50;25.25;;;;;6.79;73.82;102112.16;146616;660;46016;-73
2024/01/11 00:32:07;;;;;;;;;26.25;23.75;;;;;6.81;73.92;102104.53;146622;620;46010;-73
2024/01/11 00:35:02;;;;;;;;;28.25;25.75;;;;;6.80;74.51;102107.91;146618;674;46014;-72
2024/01/11 00:37:57;;;;;;;;;26.50;24.25;;;;;6.82;75.13;102115.00;146620;607;47010;-72
2024/01/11 00:40:52;;;;;;;;;34.75;27.50;;;;;6.85;75.37;102124.66;146618;569;46013;-73
2024/01/11 00:43:46;;;;;;;;;21.75;21.75;;;;;6.82;76.72;102127.91;146622;721;46010;-74
2024/01/11 00:46:39;;;;;;;;;17.25;13.50;;;;;6.82;75.86;102114.06;146616;575;46012;-70
2024/01/11 00:49:35;;;;;;;;;20.25;17.50;;;;;3.52;76.02;101538.31;146620;701;46010;-70
2024/01/11 00:52:27;;;;;;;;;24.00;20.25;;;;;6.68;75.94;102103.44;146616;599;46916;-71
2024/01/11 00:55:19;;;;;;;;;22.50;21.00;;;;;6.74;75.32;102107.34;146623;605;45021;-71
2024/01/11 00:58:14;;;;;;;;;26.75;21.00;;;;;6.73;75.10;102096.16;146620;650;46016;-71
2024/01/11 01:01:19;;;;;;;;;21.75;20.00;;;;;6.73;75.46;102093.56;146614;573;47010;-72
2024/01/11 01:04:10;;;;;;;;;21.75;21.50;;;;;6.71;73.54;102083.09;146610;574;47017;-71
2024/01/11 01:07:05;;;;;;;;;20.25;19.50;;;;;6.70;72.91;102077.81;146617;579;46010;-70
2024/01/11 01:10:08;;;;;;;;;26.25;22.50;;;;;6.70;73.79;102082.97;146614;590;47012;-71
2024/01/11 01:13:16;;;;;;;;;25.75;22.00;;;;;2.45;73.57;101321.78;146616;597;46020;-71
2024/01/11 01:16:11;;;;;;;;;24.25;19.75;;;;;6.67;74.51;102062.09;146611;643;47015;-72
2024/01/11 01:19:10;;;;;;;;;23.00;22.75;;;;;6.66;73.99;102050.84;146614;629;46010;-72
2024/01/11 01:22:05;;;;;;;;;37.00;27.00;;;;;6.66;73.59;102053.44;146612;590;46016;-72
2024/01/11 01:25:05;;;;;;;;;28.50;22.75;;;;;6.67;72.98;102044.06;146615;564;46021;-72
2024/01/11 01:28:02;;;;;;;;;26.00;23.25;;;;;6.62;74.29;102035.91;146609;633;47012;-70
2024/01/11 01:30:55;;;;;;;;;32.00;27.25;;;;;6.67;73.30;102049.22;146616;615;47010;-72
2024/01/11 01:33:59;;;;;;;;;28.50;26.00;;;;;6.62;72.41;102043.63;146611;628;48014;-72
2024/01/11 01:36:57;;;;;;;;;26.25;24.75;;;;;6.72;73.33;102047.91;146613;592;46020;-71
2024/01/11 01:39:50;;;;;;;;;22.75;18.75;;;;;6.76;74.18;102052.59;146608;594;47916;-74
2024/01/11 01:42:53;;;;;;;;;22.00;15.50;;;;;6.78;73.37;102051.03;146613;605;46020;-72
2024/01/11 01:45:49;;;;;;;;;28.50;26.75;;;;;6.82;72.79;102047.97;146614;606;46012;-72
2024/01/11 01:49:03;;;;;;;;;25.50;22.50;;;;;6.82;71.65;102027.34;146612;574;47010;-73
2024/01/11 01:52:11;;;;;;;;;22.25;19.00;;;;;6.93;71.62;102042.06;146611;605;46016;-73
2024/01/11 01:55:16;;;;;;;;;23.00;20.75;;;;;6.98;72.37;102037.31;146613;599;47020;-73
2024/01/11 01:58:18;;;;;;;;;22.25;19.50;;;;;7.01;71.73;102034.06;146611;606;46016;-73
2024/01/11 02:01:14;;;;;;;;;20.50;18.50;;;;;7.05;71.49;102044.78;146613;618;46015;-73
2024/01/11 02:04:10;;;;;;;;;22.00;19.25;;;;;7.09;71.09;102031.38;146610;597;47012;-72
2024/01/11 02:07:03;;;;;;;;;17.50;16.75;;;;;7.10;70.30;102034.84;146614;564;46020;-73
2024/01/11 02:09:57;;;;;;;;;21.00;18.50;;;;;7.12;70.41;102030.75;146606;578;48013;-73
2024/01/11 02:12:50;;;;;;;;;18.50;18.25;;;;;7.13;70.57;102035.12;146611;565;48020;-73
2024/01/11 02:15:52;;;;;;;;;21.25;19.25;;;;;7.16;70.21;102028.56;146608;619;46012;-73
2024/01/11 02:18:47;;;;;;;;;16.75;16.75;;;;;7.15;69.98;102024.16;146614;602;46020;-73
2024/01/11 02:21:45;;;;;;;;;22.75;19.75;;;;;7.17;70.10;102032.94;146609;590;46016;-72
2024/01/11 02:24:37;;;;;;;;;24.25;20.00;;;;;7.20;70.37;102028.84;146615;572;46014;-75
2024/01/11 02:27:36;;;;;;;;;18.00;16.50;;;;;7.21;71.21;102030.63;146613;563;46012;-70
2024/01/11 02:30:30;;;;;;;;;17.50;15.75;;;;;7.21;71.24;102025.47;146616;625;46020;-71
2024/01/11 02:33:29;;;;;;;;;23.00;15.00;;;;;7.22;71.19;102028.16;146608;569;46917;-72
2024/01/11 02:36:41;;;;;;;;;23.50;16.00;;;;;7.21;72.06;102022.91;146614;579;46010;-71
2024/01/11 02:39:36;;;;;;;;;21.00;16.00;;;;;7.17;71.95;102012.31;146613;576;46013;-70
2024/01/11 02:42:28;;;;;;;;;18.75;16.75;;;;;7.15;71.17;102015.53;146610;607;46020;-75
2024/01/11 02:45:30;;;;;;;;;20.00;17.00;;;;;5.16;71.36;101660.91;146611;580;45020;-75
2024/01/11 02:48:24;;;;;;;;;23.00;20.50;;;;;7.11;71.65;102014.38;146613;626;47010;-73
2024/01/11 02:51:17;;;;;;;;;21.00;20.25;;;;;7.08;72.35;102011.53;146611;570;47016;-73
2024/01/11 02:54:11;;;;;;;;;26.50;25.50;;;;;7.03;71.56;102005.06;146615;577;46010;-73
2024/01/11 02:57:03;;;;;;;;;29.25;28.00;;;;;6.98;71.74;102005.44;146611;669;46016;-73
2024/01/11 02:59:56;;;;;;;;;29.00;26.50;;;;;6.90;71.82;102005.69;146613;564;46010;-70
2024/01/11 03:02:57;;;;;;;;;31.00;29.75;;;;;6.84;71.21;102005.16;146612;622;45017;-71
2024/01/11 03:05:51;;;;;;;;;33.25;27.50;;;;;6.77;70.81;102000.25;146615;801;46010;-70
2024/01/11 03:08:46;;;;;;;;;28.75;27.50;;;;;6.70;71.24;102003.06;146612;564;46013;-68
2024/01/11 03:11:47;;;;;;;;;27.00;22.75;;;;;6.65;70.54;102000.09;146613;725;46037;-71
2024/01/11 03:14:40;;;;;;;;;33.75;27.25;;;;;6.65;71.69;102004.34;146611;595;46016;-71
2024/01/11 03:17:34;;;;;;;;;28.75;25.00;;;;;6.66;72.71;101998.41;146613;564;46010;-68
2024/01/11 03:20:33;;;;;;;;;27.50;24.25;;;;;6.65;72.26;101994.94;146608;597;47012;-70
2024/01/11 03:23:35;;;;;;;;;23.50;21.25;;;;;4.48;72.10;101607.78;146612;631;46021;-70
2024/01/11 03:26:30;;;;;;;;;24.75;23.25;;;;;6.65;72.16;101982.03;146609;581;47016;-70
2024/01/11 03:29:28;;;;;;;;;28.00;24.75;;;;;6.67;72.34;101984.75;146612;557;46020;-71
2024/01/11 03:32:29;;;;;;;;;25.75;23.75;;;;;6.71;72.56;101976.53;146612;575;46016;-71
2024/01/11 03:35:25;;;;;;;;;24.50;22.00;;;;;6.75;72.23;101965.69;146610;594;46010;-70
2024/01/11 03:38:18;;;;;;;;;26.25;21.25;;;;;6.79;71.49;101972.94;146610;641;47017;-71
2024/01/11 03:41:19;;;;;;;;;30.00;28.00;;;;;6.83;71.92;101972.44;146612;586;47010;-69
2024/01/11 03:44:20;;;;;;;;;37.50;30.00;;;;;6.84;70.98;101963.91;146612;590;46012;-77
2024/01/11 03:47:24;;;;;;;;;33.50;30.25;;;;;6.81;71.87;101966.22;146611;672;46020;-73
2024/01/11 03:50:23;;;;;;;;;32.75;30.00;;;;;6.75;71.29;101960.53;146612;581;46014;-73
2024/01/11 03:53:22;;;;;;;;;34.00;29.00;;;;;6.74;71.15;101958.75;146611;608;47010;-72
2024/01/11 03:56:17;;;;;;;;;34.25;27.75;;;;;6.74;70.68;101956.16;146609;589;47012;-72
2024/01/11 03:59:17;;;;;;;;;34.50;30.50;;;;;6.74;71.06;101952.69;146615;596;46010;-72
2024/01/11 04:02:11;;;;;;;;;29.00;25.50;;;;;6.71;70.37;101956.78;146610;612;46031;-73
2024/01/11 04:05:18;;;;;;;;;46.00;38.00;;;;;6.72;70.41;101949.97;146613;564;46020;-73
2024/01/11 04:08:14;;;;;;;;;32.25;29.75;;;;;6.74;70.48;101944.94;146612;654;46016;-72
2024/01/11 04:11:26;;;;;;;;;31.75;27.50;;;;;6.71;70.67;101941.34;146615;729;46010;-73
2024/01/11 04:14:37;;;;;;;;;;;;;;;;;;;;;
2024/01/11 04:17:54;;;;;;;;;35.00;30.25;;;;;6.79;69.73;101949.75;146614;674;47014;-75
2024/01/11 04:20:54;;;;;;;;;33.25;29.00;;;;;6.79;69.61;101949.75;146614;594;47012;-76
2024/01/11 04:23:49;;;;;;;;;38.50;32.25;;;;;6.83;69.55;101951.81;146615;622;45028;-76
2024/01/11 04:26:46;;;;;;;;;33.75;28.75;;;;;6.90;70.02;101950.66;146614;687;45016;-73
2024/01/11 04:29:48;;;;;;;;;36.25;30.75;;;;;6.95;69.95;101951.94;146611;651;46011;-72
2024/01/11 04:32:40;;;;;;;;;26.75;26.00;;;;;6.94;69.71;101951.03;146609;675;46012;-74
2024/01/11 04:35:44;;;;;;;;;33.25;30.25;;;;;6.96;69.36;101955.44;146614;580;47020;-79
2024/01/11 04:38:44;;;;;;;;;29.00;25.25;;;;;6.99;69.87;101956.59;146609;578;46026;-78
2024/01/11 04:41:48;;;;;;;;;32.75;27.25;;;;;7.00;69.43;101953.22;146611;613;46020;-81
2024/01/11 04:44:43;;;;;;;;;28.75;27.00;;;;;7.02;69.25;101955.94;146609;605;47012;-81
2024/01/11 04:47:38;;;;;;;;;46.00;38.00;;;;;7.02;69.39;101951.69;146610;616;46020;-82
2024/01/11 04:50:32;;;;;;;;;33.00;30.25;;;;;7.03;68.86;101957.75;146608;642;46914;-72
2024/01/11 04:53:23;;;;;;;;;33.50;25.00;;;;;7.01;69.18;101952.47;146614;610;46010;-71
2024/01/11 04:56:23;;;;;;;;;29.50;25.50;;;;;7.01;68.61;101952.47;146609;632;47012;-71
2024/01/11 04:59:26;;;;;;;;;33.75;29.00;;;;;7.01;68.26;101947.31;146613;671;46010;-72
2024/01/11 05:02:39;;;;;;;;;24.25;21.25;;;;;4.93;67.66;101582.69;146630;576;46012;-72
2024/01/11 05:05:34;;;;;;;;;29.25;23.75;;;;;7.02;67.97;101940.47;146634;566;46020;-71
2024/01/11 05:08:29;;;;;;;;;26.75;25.25;;;;;7.00;68.22;101939.44;146636;573;45914;-72
2024/01/11 05:11:26;;;;;;;;;27.25;26.25;;;;;7.00;68.01;101936.84;146633;633;45010;-72
2024/01/11 05:14:21;;;;;;;;;32.50;27.75;;;;;7.00;68.64;101944.59;146633;570;46017;-72
2024/01/11 05:17:25;;;;;;;;;33.25;28.25;;;;;7.00;68.81;101942.00;146635;563;46010;-72
2024/01/11 05:20:19;;;;;;;;;38.75;31.75;;;;;6.96;69.33;101929.63;146635;569;45021;-72
2024/01/11 05:23:14;;;;;;;;;36.75;32.25;;;;;6.97;69.06;101946.91;146638;565;45030;-72
2024/01/11 05:26:08;;;;;;;;;31.75;28.25;;;;;5.25;69.17;101636.87;146633;639;45016;-71
2024/01/11 05:29:09;;;;;;;;;38.75;32.00;;;;;6.99;68.97;101937.63;146637;609;45010;-82
2024/01/11 05:32:14;;;;;;;;;40.75;34.00;;;;;4.91;68.55;101575.59;146632;615;46913;-79
2024/01/11 05:35:12;;;;;;;;;44.00;33.75;;;;;6.98;69.16;101934.16;146633;569;46020;-80
2024/01/11 05:38:15;;;;;;;;;46.25;36.00;;;;;7.00;69.10;101939.44;146636;606;45016;-80
2024/01/11 05:41:19;;;;;;;;;40.25;34.00;;;;;6.92;69.23;101926.81;146635;704;45020;-78
2024/01/11 05:44:11;;;;;;;;;43.00;34.00;;;;;7.01;69.19;101928.34;146631;699;46017;-78
2024/01/11 05:47:07;;;;;;;;;43.75;34.50;;;;;5.35;68.72;101643.72;146635;581;46020;-78
2024/01/11 05:50:12;;;;;;;;;41.25;32.75;;;;;7.03;68.99;101938.00;146628;624;46914;-79
2024/01/11 05:53:20;;;;;;;;;41.50;32.00;;;;;7.03;68.88;101934.53;146636;622;45021;-77
2024/01/11 05:56:21;;;;;;;;;46.25;38.50;;;;;7.01;69.22;101939.59;146633;625;45012;-77
2024/01/11 05:59:17;;;;;;;;;42.00;34.25;;;;;7.02;68.97;101941.38;146638;577;45021;-75
2024/01/11 06:02:22;;;;;;;;;46.75;36.00;;;;;7.02;69.02;101935.31;146609;569;46016;-73
2024/01/11 06:05:20;;;;;;;;;53.00;44.25;;;;;7.02;68.98;101932.75;146613;580;46021;-73
2024/01/11 06:08:16;;;;;;;;;45.25;35.25;;;;;7.01;69.24;101928.34;146605;574;47016;-73
2024/01/11 06:11:19;;;;;;;;;43.75;34.25;;;;;6.94;68.97;101927.81;146610;668;48020;-73
2024/01/11 06:14:14;;;;;;;;;41.25;34.50;;;;;6.89;69.58;101939.44;146610;616;47012;-72
2024/01/11 06:17:05;;;;;;;;;46.00;35.50;;;;;6.89;70.16;101928.22;146609;598;47010;-72
2024/01/11 06:20:14;;;;;;;;;51.50;38.50;;;;;6.88;70.29;101928.97;146610;617;46017;-73
2024/01/11 06:23:12;;;;;;;;;51.00;35.75;;;;;6.89;70.49;101936.84;146614;569;46036;-73
2024/01/11 06:26:27;;;;;;;;;;;;;;;;;;;;;
2024/01/11 06:29:20;;;;;;;;;48.75;36.25;;;;;6.82;71.36;101924.22;146611;589;46023;-72
2024/01/11 06:32:22;;;;;;;;;51.75;41.00;;;;;5.06;70.73;101626.69;146606;618;48012;-73
2024/01/11 06:35:14;;;;;;;;;53.25;39.75;;;;;6.81;71.73;101935.28;146610;572;46021;-72
2024/01/11 06:38:23;;;;;;;;;46.75;37.25;;;;;6.82;71.19;101941.34;146610;573;46016;-72
2024/01/11 06:41:15;;;;;;;;;47.50;38.00;;;;;6.83;71.75;101938.00;146614;563;46010;-73
2024/01/11 06:44:16;;;;;;;;;57.00;45.00;;;;;6.86;71.39;101934.00;146606;595;47012;-72
2024/01/11 06:47:09;;;;;;;;;59.75;45.25;;;;;6.92;71.38;101936.22;146614;628;47020;-73
2024/01/11 06:50:03;;;;;;;;;53.50;41.50;;;;;6.71;71.65;101897.50;146607;582;46017;-77
2024/01/11 06:53:02;;;;;;;;;43.50;36.75;;;;;6.98;71.38;101943.53;146609;586;46014;-74
2024/01/11 06:56:07;;;;;;;;;52.75;42.50;;;;;6.98;71.19;101947.06;146611;577;46032;-71
2024/01/11 06:59:05;;;;;;;;;49.00;41.00;;;;;6.99;71.48;101940.22;146615;570;45021;-71
2024/01/11 07:02:00;;;;;;;;;52.25;41.75;;;;;7.01;71.36;101939.59;146608;577;47012;-74
2024/01/11 07:04:51;;;;;;;;;53.75;43.00;;;;;7.06;71.21;101951.16;146611;569;46010;-76
2024/01/11 07:07:47;;;;;;;;;57.75;46.00;;;;;7.09;71.01;101954.00;146606;569;47016;-76
2024/01/11 07:10:43;;;;;;;;;50.50;41.25;;;;;7.09;71.67;101945.37;146613;602;46014;-76
2024/01/11 07:13:37;;;;;;;;;51.25;41.00;;;;;7.19;71.24;101955.69;146607;666;46013;-75
2024/01/11 07:16:32;;;;;;;;;51.50;41.00;;;;;7.22;71.62;101957.62;146609;594;47020;-75
2024/01/11 07:19:30;;;;;;;;;53.75;41.50;;;;;7.24;71.34;101956.97;146604;563;46016;-77
2024/01/11 07:22:24;;;;;;;;;41.75;34.00;;;;;7.23;70.96;101956.84;146610;569;47010;-74
2024/01/11 07:25:31;;;;;;;;;50.25;39.00;;;;;7.23;70.67;101965.50;146612;630;46016;-73
2024/01/11 07:28:37;;;;;;;;;58.50;46.25;;;;;7.18;70.46;101961.63;146611;608;46011;-73
2024/01/11 07:31:29;;;;;;;;;53.25;42.00;;;;;7.16;71.10;101971.81;146614;650;45016;-73
2024/01/11 07:34:24;;;;;;;;;50.25;39.25;;;;;7.15;70.92;101967.41;146613;599;46010;-74
2024/01/11 07:37:29;;;;;;;;;44.50;35.50;;;;;7.15;70.49;101969.09;146611;586;46016;-71
2024/01/11 07:40:22;;;;;;;;;40.75;33.50;;;;;7.14;69.97;101967.31;146611;584;46010;-71
2024/01/11 07:43:28;;;;;;;;;;;;;;;;;;;;;
2024/01/11 07:46:23;;;;;;;;;47.50;39.00;;;;;7.19;70.42;101978.91;146613;563;46010;-72
2024/01/11 07:49:20;;;;;;;;;48.00;39.25;;;;;7.23;70.48;101977.47;146611;587;46017;-69
2024/01/11 07:52:15;;;;;;;;;49.25;38.00;;;;;7.27;70.16;101983.03;146616;587;45021;-71
2024/01/11 07:55:28;;;;;;;;;47.00;38.00;;;;;7.31;70.04;101976.47;146612;686;47016;-71
2024/01/11 07:58:20;;;;;;;;;48.00;38.75;;;;;7.32;69.68;101976.59;146615;706;46010;-71
2024/01/11 08:01:15;;;;;;;;;47.25;38.25;;;;;7.37;69.77;101985.63;146610;638;47016;-71
2024/01/11 08:04:27;;;;;;;;;43.25;36.25;;;;;7.39;69.50;101978.00;146611;592;46010;-71
2024/01/11 08:07:26;;;;;;;;;46.25;36.50;;;;;7.38;69.79;101989.09;146610;622;46016;-71
2024/01/11 08:10:23;;;;;;;;;45.75;37.50;;;;;7.38;69.43;101990.03;146604;668;47010;-71
2024/01/11 08:13:17;;;;;;;;;41.75;34.00;;;;;7.38;69.53;101989.09;146611;635;46017;-70
2024/01/11 08:16:15;;;;;;;;;46.25;35.75;;;;;7.33;69.50;101996.47;146613;643;46010;-71
2024/01/11 08:19:10;;;;;;;;;47.50;35.50;;;;;7.30;70.01;101987.56;146608;623;46017;-71
2024/01/11 08:22:03;;;;;;;;;38.50;32.25;;;;;7.28;69.95;101979.69;146612;758;46020;-71
2024/01/11 08:24:59;;;;;;;;;49.00;38.00;;;;;7.30;69.60;101984.97;146609;638;47016;-70
2024/01/11 08:27:56;;;;;;;;;40.75;35.25;;;;;7.31;69.72;101990.25;146613;595;46014;-71
2024/01/11 08:30:47;;;;;;;;;46.25;36.00;;;;;7.34;69.81;101987.94;146610;571;47012;-71
2024/01/11 08:33:43;;;;;;;;;52.25;41.25;;;;;7.40;69.96;101988.44;146613;601;46021;-71
2024/01/11 08:36:41;;;;;;;;;45.50;36.25;;;;;7.47;69.35;101983.81;146608;575;47012;-72
2024/01/11 08:39:39;;;;;;;;;53.50;41.00;;;;;7.51;69.55;101981.63;146611;736;46039;-72
2024/01/11 08:42:41;;;;;;;;;55.75;45.00;;;;;7.59;69.56;101977.97;146611;613;48044;-72
2024/01/11 08:45:43;;;;;;;;;57.50;45.00;;;;;7.66;70.09;101971.66;146614;636;47010;-73
2024/01/11 08:48:44;;;;;;;;;50.00;40.00;;;;;7.61;71.46;101963.53;146611;597;46016;-71
2024/01/11 08:51:39;;;;;;;;;53.50;42.00;;;;;7.65;71.17;101972.44;146614;632;46020;-72
2024/01/11 08:54:32;;;;;;;;;49.75;39.25;;;;;7.63;71.49;101959.41;146613;606;46016;-71
2024/01/11 08:57:40;;;;;;;;;45.75;38.25;;;;;7.61;70.51;101953.22;146616;596;46020;-71
2024/01/11 09:00:39;;;;;;;;;53.75;43.75;;;;;7.64;70.85;101950.88;146610;592;47014;-72
2024/01/11 09:03:37;;;;;;;;;50.25;41.00;;;;;7.69;70.88;101953.81;146615;617;46021;-71
2024/01/11 09:06:34;;;;;;;;;42.50;35.25;;;;;7.74;69.96;101944.78;146607;617;46016;-71
2024/01/11 09:09:28;;;;;;;;;36.25;31.75;;;;;7.74;68.68;101942.22;146603;579;46020;-70
2024/01/11 09:12:20;;;;;;;;;42.50;33.50;;;;;7.70;68.39;101934.09;146605;599;47012;-71
2024/01/11 09:15:17;;;;;;;;;45.50;36.50;;;;;7.66;68.44;101947.50;146613;609;46020;-73
2024/01/11 09:18:15;;;;;;;;;48.50;36.00;;;;;7.59;69.20;101938.37;146606;671;46013;-71
2024/01/11 09:21:11;;;;;;;;;46.00;35.00;;;;;7.57;69.37;101930.50;146613;607;46020;-71
2024/01/11 09:24:06;;;;;;;;;48.75;39.25;;;;;7.60;69.40;101924.66;146610;590;46016;-72
2024/01/11 09:26:58;;;;;;;;;51.50;38.75;;;;;7.64;69.64;101921.59;146613;574;47020;-72
2024/01/11 09:29:57;;;;;;;;;45.00;34.25;;;;;7.69;69.26;101919.38;146612;596;46036;-72
2024/01/11 09:32:49;;;;;;;;;45.75;37.75;;;;;7.74;69.55;101911.22;146618;627;45020;-72
2024/01/11 09:35:42;;;;;;;;;45.75;37.50;;;;;7.82;70.05;101905.03;146612;735;46014;-70
2024/01/11 09:38:46;;;;;;;;;57.75;46.50;;;;;7.93;70.17;101903.28;146608;671;46010;-70
2024/01/11 09:41:51;;;;;;;;;52.00;42.25;;;;;8.04;70.02;101901.59;146612;599;46016;-71
2024/01/11 09:44:52;;;;;;;;;53.00;42.00;;;;;8.17;69.46;101893.12;146609;569;48014;-71
2024/01/11 09:47:50;;;;;;;;;41.00;33.75;;;;;8.22;69.35;101891.78;146610;644;46916;-69
2024/01/11 09:50:52;;;;;;;;;43.25;35.00;;;;;8.22;68.37;101873.69;146611;578;47020;-71
2024/01/11 09:53:56;;;;;;;;;46.50;36.00;;;;;8.20;68.64;101867.53;146607;566;47016;-73
2024/01/11 09:57:02;;;;;;;;;58.75;45.25;;;;;8.25;68.85;101872.25;146612;576;47020;-72
2024/01/11 10:00:11;;;;;;;;;53.75;43.75;;;;;8.28;68.56;101863.84;146608;604;46016;-70
2024/01/11 10:03:11;;;;;;;;;60.00;48.50;;;;;8.31;68.79;101861.50;146612;573;46021;-71
2024/01/11 10:06:23;;;;;;;;;56.50;42.00;;;;;8.30;68.24;101846.78;146608;569;46016;-71
2024/01/11 10:09:23;;;;;;;;;48.25;39.25;;;;;8.30;68.10;101842.53;146608;564;46021;-71
2024/01/11 10:12:15;;;;;;;;;56.75;44.00;;;;;8.30;68.79;101839.03;146607;572;47012;-71
2024/01/11 10:15:29;;;;;;;;;52.50;41.75;;;;;8.32;68.26;101829.75;146613;586;46027;-71
2024/01/11 10:18:25;;;;;;;;;63.50;48.00;;;;;8.36;68.54;101823.13;146607;581;47916;-71
2024/01/11 10:21:20;;;;;;;;;63.50;50.75;;;;;8.42;68.73;101813.28;146610;569;47010;-70
2024/01/11 10:24:23;;;;;;;;;56.75;44.50;;;;;8.45;68.01;101811.84;146610;601;47015;-70
2024/01/11 10:27:19;;;;;;;;;48.75;40.50;;;;;8.49;67.84;101797.47;146615;631;46010;-70
2024/01/11 10:30:20;;;;;;;;;76.75;62.25;;;;;8.57;67.40;101796.37;146606;604;46016;-71
2024/01/11 10:33:13;;;;;;;;;65.25;52.25;;;;;8.64;67.34;101787.41;146612;564;47012;-71
2024/01/11 10:36:20;;;;;;;;;48.75;39.00;;;;;8.69;68.08;101789.56;146609;615;46916;-71
2024/01/11 10:39:20;;;;;;;;;55.50;44.00;;;;;8.74;67.80;101785.59;146609;564;46037;-71
2024/01/11 10:42:29;;;;;;;;;66.75;50.25;;;;;5.40;66.88;101174.38;146610;608;46916;-71
2024/01/11 10:45:25;;;;;;;;;57.25;45.00;;;;;8.86;67.08;101769.22;146612;603;46020;-70
2024/01/11 10:48:34;;;;;;;;;54.25;43.25;;;;;8.88;66.96;101767.62;146606;636;47012;-71
2024/01/11 10:51:27;;;;;;;;;51.75;41.00;;;;;8.85;67.67;101762.22;146609;588;46010;-70
2024/01/11 10:54:23;;;;;;;;;52.00;42.25;;;;;8.85;67.70;101754.47;146612;564;46016;-70
2024/01/11 10:57:17;;;;;;;;;50.00;39.50;;;;;8.87;68.02;101752.91;146613;590;46010;-70
2024/01/11 11:00:12;;;;;;;;;52.50;41.75;;;;;8.87;67.31;101742.56;146611;678;46016;-69
2024/01/11 11:03:07;;;;;;;;;55.25;43.00;;;;;8.88;67.44;101731.41;146612;575;46010;-71
2024/01/11 11:06:25;;;;;;;;;63.75;47.25;;;;;8.89;67.72;101717.72;146610;583;47012;-70
2024/01/11 11:09:27;;;;;;;;;53.00;41.50;;;;;8.89;67.60;101716.03;146609;618;46010;-71
2024/01/11 11:12:23;;;;;;;;;51.50;42.00;;;;;8.92;66.82;101713.66;146612;630;46016;-70
2024/01/11 11:15:18;;;;;;;;;42.75;34.25;;;;;8.94;66.40;101698.25;146609;586;47010;-70
2024/01/11 11:18:28;;;;;;;;;45.25;35.50;;;;;8.97;65.96;101696.81;146613;799;46017;-70
2024/01/11 11:21:28;;;;;;;;;46.00;38.00;;;;;9.04;65.03;101689.50;146613;581;46020;-71
2024/01/11 11:24:37;;;;;;;;;;;;;;;;;;;;;
2024/01/11 11:27:35;;;;;;;;;52.50;40.75;;;;;9.10;65.24;101677.91;146611;576;47020;-70
2024/01/11 11:30:49;;;;;;;;;;;;;;;;;;;;;
2024/01/11 11:33:42;;;;;;;;;47.00;36.50;;;;;9.14;64.13;101660.91;146615;574;46014;-70
2024/01/11 11:36:35;;;;;;;;;49.50;41.00;;;;;9.14;64.26;101654.03;146608;612;47012;-70
2024/01/11 11:39:37;;;;;;;;;36.50;31.50;;;;;9.10;63.29;101657.19;146606;579;46011;-69
2024/01/11 11:42:35;;;;;;;;;45.50;35.75;;;;;9.07;62.94;101651.81;146611;615;46016;-70
2024/01/11 11:45:34;;;;;;;;;43.25;36.25;;;;;9.01;63.76;101638.44;146611;580;46021;-71
2024/01/11 11:48:59;;;;;;;;;43.75;35.00;;;;;9.00;63.45;101644.38;146608;613;47014;-69
2024/01/11 11:51:52;;;;;;;;;43.25;36.75;;;;;8.99;63.96;101638.31;146615;675;46014;-70
2024/01/11 11:54:46;;;;;;;;;52.50;41.00;;;;;9.02;63.33;101622.09;146611;604;46013;-70
2024/01/11 11:57:40;;;;;;;;;46.25;35.50;;;;;9.05;63.56;101619.75;146615;573;46020;-70
2024/01/11 12:00:38;;;;;;;;;56.50;43.00;;;;;9.11;63.48;101612.41;146609;590;46017;-71
2024/01/11 12:03:49;;;;;;;;;48.00;37.25;;;;;9.20;63.58;101604.41;146611;645;46020;-71
2024/01/11 12:06:45;;;;;;;;;51.00;39.25;;;;;9.28;64.11;101592.00;146608;569;46916;-70
2024/01/11 12:09:46;;;;;;;;;55.75;41.50;;;;;9.40;63.86;101590.28;146608;640;47020;-71
2024/01/11 12:12:42;;;;;;;;;52.75;42.00;;;;;9.51;63.49;101578.97;146611;610;46016;-70
2024/01/11 12:15:39;;;;;;;;;51.25;41.25;;;;;9.58;62.76;101576.00;146613;618;47010;-70
2024/01/11 12:18:34;;;;;;;;;46.50;37.25;;;;;9.64;62.64;101581.63;146605;563;47916;-70
2024/01/11 12:21:39;;;;;;;;;35.50;31.50;;;;;6.07;62.06;100938.44;146612;578;46021;-70
2024/01/11 12:24:44;;;;;;;;;36.75;30.50;;;;;9.74;61.76;101567.59;146601;575;49917;-70
2024/01/11 12:27:56;;;;;;;;;37.50;31.00;;;;;6.06;62.16;100910.91;146612;593;46010;-70
2024/01/11 12:30:52;;;;;;;;;33.00;29.25;;;;;9.86;61.56;101565.84;146610;586;47013;-72
2024/01/11 12:33:57;;;;;;;;;26.25;23.25;;;;;9.89;61.06;101622.16;146608;584;47019;-70
2024/01/11 12:37:14;;;;;;;;;46.00;35.25;;;;;9.96;60.94;101554.41;146611;580;46016;-71
2024/01/11 12:40:23;;;;;;;;;33.00;29.00;;;;;10.02;61.38;101557.41;146603;628;47010;-72
2024/01/11 12:43:19;;;;;;;;;36.75;31.00;;;;;10.10;61.02;101555.34;146609;611;47027;-71
2024/01/11 12:46:17;;;;;;;;;27.00;25.75;;;;;10.13;60.22;101555.53;146614;574;46032;-71
2024/01/11 12:49:21;;;;;;;;;29.50;26.00;;;;;10.15;60.70;101546.16;146610;745;47012;-70
2024/01/11 12:52:33;;;;;;;;;29.25;27.75;;;;;10.18;60.88;101546.34;146612;602;46021;-71
2024/01/11 12:55:34;;;;;;;;;33.00;30.25;;;;;10.22;59.75;101543.19;146608;616;46016;-70
2024/01/11 12:58:29;;;;;;;;;31.50;23.00;;;;;10.23;59.63;101537.19;146611;634;46020;-70
2024/01/11 13:01:22;;;;;;;;;25.25;23.00;;;;;10.19;59.01;101537.81;146610;736;46017;-70
2024/01/11 13:04:17;;;;;;;;;30.00;23.75;;;;;10.17;59.08;101529.00;146613;605;46020;-70
2024/01/11 13:07:14;;;;;;;;;29.00;25.75;;;;;10.14;59.18;101526.22;146611;579;46017;-69
2024/01/11 13:10:20;;;;;;;;;44.00;35.75;;;;;10.13;59.81;101533.09;146608;564;46020;-71
2024/01/11 13:13:15;;;;;;;;;33.50;28.75;;;;;10.13;59.39;101525.31;146609;619;46034;-70
2024/01/11 13:16:14;;;;;;;;;31.75;28.50;;;;;10.13;59.22;101521.84;146605;570;46883;-71
2024/01/11 13:19:10;;;;;;;;;49.25;38.50;;;;;10.12;59.96;101520.94;146609;580;46916;-70
2024/01/11 13:22:10;;;;;;;;;38.50;33.00;;;;;10.14;59.77;101515.84;146611;571;46021;-70
2024/01/11 13:25:04;;;;;;;;;48.00;38.00;;;;;10.14;59.27;101513.25;146611;565;46012;-70
2024/01/11 13:27:58;;;;;;;;;48.50;40.75;;;;;10.17;59.97;101500.50;146613;598;47020;-70
2024/01/11 13:31:03;;;;;;;;;36.25;30.25;;;;;10.55;59.25;101508.19;146609;576;46013;-70
2024/01/11 13:34:05;;;;;;;;;47.50;39.25;;;;;10.88;59.30;101499.84;146612;573;47028;-70
2024/01/11 13:37:03;;;;;;;;;43.75;35.00;;;;;11.43;58.38;101500.59;146612;622;46013;-70
2024/01/11 13:39:57;;;;;;;;;36.00;31.50;;;;;11.99;54.61;101518.69;146604;627;47020;-71
2024/01/11 13:42:49;;;;;;;;;33.50;29.50;;;;;12.41;53.94;101491.66;146611;594;46016;-70
2024/01/11 13:45:44;;;;;;;;;42.25;34.75;;;;;12.85;53.57;101487.09;146611;593;46047;-70
2024/01/11 13:48:39;;;;;;;;;53.50;42.75;;;;;13.29;53.49;101491.22;146610;565;46016;-70